Time;durP1;ratioP1;P1;durP2;ratioP2;P2;SDS_P1;SDS_P2;PMS_P1;PMS_P2;Temp;Humidity;BMP_temperature;BMP_pressure;BME280_temperature;BME280_humidity;BME280_pressure;Samples;Min_cycle;Max_cycle;Signal;HPM_P1;HPM_P2
2023/01/23 00:00:28;;;;;;;33.13;29.48;;;;;;;;;;5027966;28;20037;-52
2023/01/23 00:02:56;;;;;;;32.65;28.40;;;;;;;;;;5027825;28;20025;-55
2023/01/23 00:05:22;;;;;;;32.80;28.33;;;;;;;;;;5027044;28;20025;-59
2023/01/23 00:07:48;;;;;;;31.83;28.30;;;;;;;;;;5028345;28;20559;-55
2023/01/23 00:10:14;;;;;;;30.23;26.63;;;;;;;;;;5028852;28;20700;-59
2023/01/23 00:12:43;;;;;;;33.95;29.25;;;;;;;;;;5028612;28;20026;-58
2023/01/23 00:15:10;;;;;;;36.33;28.13;;;;;;;;;;5028749;28;20025;-60
2023/01/23 00:17:36;;;;;;;33.75;28.27;;;;;;;;;;5028985;28;20025;-60
2023/01/23 00:20:03;;;;;;;32.40;27.80;;;;;;;;;;5027372;28;20367;-56
2023/01/23 00:22:29;;;;;;;33.05;27.77;;;;;;;;;;5028625;28;20545;-62
2023/01/23 00:24:55;;;;;;;32.58;28.33;;;;;;;;;;5028343;28;20044;-58
2023/01/23 00:27:21;;;;;;;32.78;28.80;;;;;;;;;;5026491;28;20570;-61
2023/01/23 00:29:47;;;;;;;31.40;27.88;;;;;;;;;;5026985;28;20022;-57
2023/01/23 00:32:13;;;;;;;31.83;28.38;;;;;;;;;;5026916;28;20071;-60
2023/01/23 00:34:39;;;;;;;32.75;27.95;;;;;;;;;;5028292;28;20025;-58
2023/01/23 00:37:05;;;;;;;33.35;27.33;;;;;;;;;;5026946;28;20551;-56
2023/01/23 00:39:31;;;;;;;30.98;26.00;;;;;;;;;;5026878;28;20025;-55
2023/01/23 00:41:57;;;;;;;32.38;26.85;;;;;;;;;;5028172;28;20034;-58
2023/01/23 00:44:23;;;;;;;35.03;27.13;;;;;;;;;;5026696;28;20052;-55
2023/01/23 00:46:49;;;;;;;31.98;28.02;;;;;;;;;;5026974;28;20053;-58
2023/01/23 00:49:16;;;;;;;30.08;26.25;;;;;;;;;;5050144;23;20118;-54
2023/01/23 00:51:43;;;;;;;32.42;27.55;;;;;;;;;;5044720;28;20428;-54
2023/01/23 00:54:09;;;;;;;31.10;27.60;;;;;;;;;;5029354;28;20079;-55
2023/01/23 00:56:35;;;;;;;32.40;27.08;;;;;;;;;;5030529;28;20028;-56
2023/01/23 00:59:01;;;;;;;30.77;26.20;;;;;;;;;;5033799;28;20121;-54
2023/01/23 01:01:27;;;;;;;32.78;29.15;;;;;;;;;;5035382;28;20033;-53
2023/01/23 01:03:54;;;;;;;29.77;26.55;;;;;;;;;;5033787;28;20521;-51
2023/01/23 01:06:20;;;;;;;30.23;27.02;;;;;;;;;;5034180;28;20057;-55
2023/01/23 01:08:46;;;;;;;30.88;26.45;;;;;;;;;;5035170;28;20049;-55
2023/01/23 01:11:12;;;;;;;33.95;27.85;;;;;;;;;;5035194;28;20018;-56
2023/01/23 01:13:38;;;;;;;29.45;26.10;;;;;;;;;;5034858;28;20111;-57
2023/01/23 01:16:04;;;;;;;31.60;26.80;;;;;;;;;;5034019;28;20029;-56
2023/01/23 01:18:30;;;;;;;32.08;25.55;;;;;;;;;;5035392;28;20022;-58
2023/01/23 01:20:56;;;;;;;32.40;26.58;;;;;;;;;;5034973;28;20018;-55
2023/01/23 01:23:22;;;;;;;31.58;26.05;;;;;;;;;;5033384;28;20026;-53
2023/01/23 01:25:48;;;;;;;30.17;26.15;;;;;;;;;;5034871;28;20025;-55
2023/01/23 01:28:14;;;;;;;32.17;26.70;;;;;;;;;;5033515;28;20071;-52
2023/01/23 01:30:41;;;;;;;34.08;26.38;;;;;;;;;;5034716;28;20033;-55
2023/01/23 01:33:07;;;;;;;33.67;26.55;;;;;;;;;;5033256;28;20021;-55
2023/01/23 01:35:33;;;;;;;31.30;26.88;;;;;;;;;;5034802;28;20021;-56
2023/01/23 01:37:59;;;;;;;30.80;26.02;;;;;;;;;;5034541;28;20063;-57
2023/01/23 01:40:28;;;;;;;29.75;25.05;;;;;;;;;;5033034;28;20037;-57
2023/01/23 01:42:58;;;;;;;33.55;27.58;;;;;;;;;;5034779;28;20143;-56
2023/01/23 01:45:43;;;;;;;31.85;26.73;;;;;;;;;;5034417;28;20033;-52
2023/01/23 01:48:09;;;;;;;31.85;27.48;;;;;;;;;;5034519;28;20021;-58
2023/01/23 01:50:35;;;;;;;32.35;27.75;;;;;;;;;;5034363;28;20113;-56
2023/01/23 01:53:01;;;;;;;35.40;29.00;;;;;;;;;;5034453;28;20597;-58
2023/01/23 01:55:27;;;;;;;32.53;28.50;;;;;;;;;;5034525;28;20443;-55
2023/01/23 01:57:53;;;;;;;35.50;29.23;;;;;;;;;;5034395;28;20116;-55
2023/01/23 02:00:20;;;;;;;34.15;28.98;;;;;;;;;;5034244;28;20033;-54
2023/01/23 02:02:53;;;;;;;33.25;28.55;;;;;;;;;;5034510;28;20083;-55
2023/01/23 02:05:22;;;;;;;34.28;29.15;;;;;;;;;;5032955;28;20029;-57
2023/01/23 02:07:48;;;;;;;33.75;28.70;;;;;;;;;;5034211;28;20091;-59
2023/01/23 02:10:15;;;;;;;33.40;27.23;;;;;;;;;;5033541;28;20029;-55
2023/01/23 02:12:45;;;;;;;31.33;26.40;;;;;;;;;;5032832;28;20021;-54
2023/01/23 02:15:11;;;;;;;31.95;28.48;;;;;;;;;;5033849;28;20032;-54
2023/01/23 02:17:37;;;;;;;31.92;28.52;;;;;;;;;;5034084;28;20413;-55
2023/01/23 02:20:06;;;;;;;33.08;28.20;;;;;;;;;;5033982;28;20045;-57
2023/01/23 02:22:35;;;;;;;33.47;26.70;;;;;;;;;;5032583;28;20026;-57
2023/01/23 02:25:22;;;;;;;36.25;28.73;;;;;;;;;;5033685;28;20543;-56
2023/01/23 02:27:48;;;;;;;32.85;26.02;;;;;;;;;;5033704;28;20044;-57
2023/01/23 02:30:14;;;;;;;31.13;27.10;;;;;;;;;;5032288;28;20035;-56
2023/01/23 02:32:40;;;;;;;33.53;27.88;;;;;;;;;;5033613;28;20018;-57
2023/01/23 02:35:13;;;;;;;31.83;25.65;;;;;;;;;;5033414;28;20486;-56
2023/01/23 02:37:41;;;;;;;30.15;25.00;;;;;;;;;;5033777;28;20025;-58
2023/01/23 02:40:08;;;;;;;30.60;25.70;;;;;;;;;;5033502;28;20029;-56
2023/01/23 02:42:34;;;;;;;29.50;25.83;;;;;;;;;;5033634;28;20038;-59
2023/01/23 02:45:00;;;;;;;31.80;26.67;;;;;;;;;;5033341;28;20087;-58
2023/01/23 02:47:28;;;;;;;31.02;25.73;;;;;;;;;;5033363;28;20029;-51
2023/01/23 02:49:54;;;;;;;31.10;25.23;;;;;;;;;;5031909;28;20040;-59
2023/01/23 02:52:20;;;;;;;28.30;24.65;;;;;;;;;;5033307;28;20116;-57
2023/01/23 02:54:46;;;;;;;31.35;25.75;;;;;;;;;;5031763;28;20025;-55
2023/01/23 02:57:13;;;;;;;29.45;25.38;;;;;;;;;;5033515;28;20044;-54
2023/01/23 03:02:23;;;;;;;30.55;25.17;;;;;;;;;;5033246;28;20120;-52
2023/01/23 03:04:49;;;;;;;30.65;26.05;;;;;;;;;;5031434;28;20057;-52
2023/01/23 03:07:15;;;;;;;31.20;26.13;;;;;;;;;;5031464;28;20029;-52
2023/01/23 03:09:42;;;;;;;29.88;25.55;;;;;;;;;;5032886;28;20382;-51
2023/01/23 03:12:09;;;;;;;28.63;25.33;;;;;;;;;;5033923;28;20075;-58
2023/01/23 03:14:35;;;;;;;28.70;25.52;;;;;;;;;;5032641;28;20489;-56
2023/01/23 03:17:01;;;;;;;30.98;26.35;;;;;;;;;;5033431;28;20441;-55
2023/01/23 03:19:27;;;;;;;35.88;27.33;;;;;;;;;;5033278;28;20034;-56
2023/01/23 03:21:53;;;;;;;33.28;27.77;;;;;;;;;;5030846;28;20140;-58
2023/01/23 03:24:20;;;;;;;31.92;28.05;;;;;;;;;;5032693;28;20155;-56
2023/01/23 03:26:46;;;;;;;29.40;25.45;;;;;;;;;;5032552;28;20022;-56
2023/01/23 03:32:01;;;;;;;31.65;25.88;;;;;;;;;;5032811;28;20060;-52
2023/01/23 03:34:28;;;;;;;30.90;26.70;;;;;;;;;;5030799;28;20032;-59
2023/01/23 03:36:54;;;;;;;35.78;28.60;;;;;;;;;;5031156;28;20114;-53
2023/01/23 03:42:05;;;;;;;31.48;27.42;;;;;;;;;;5032474;28;20401;-56
2023/01/23 03:44:38;;;;;;;32.50;27.30;;;;;;;;;;5089048;27;19913;-58
2023/01/23 03:47:04;;;;;;;30.73;27.42;;;;;;;;;;5088953;28;20473;-54
2023/01/23 03:49:30;;;;;;;30.80;26.63;;;;;;;;;;5088959;28;20021;-53
2023/01/23 03:51:56;;;;;;;31.00;27.45;;;;;;;;;;5089105;28;20047;-56
2023/01/23 03:54:22;;;;;;;30.80;26.38;;;;;;;;;;5088739;28;20028;-56
2023/01/23 03:56:48;;;;;;;32.78;25.73;;;;;;;;;;5088710;28;20036;-56
2023/01/23 03:59:14;;;;;;;28.33;25.33;;;;;;;;;;5088803;28;20515;-56
2023/01/23 04:01:40;;;;;;;28.35;24.63;;;;;;;;;;5088870;28;20054;-55
2023/01/23 04:04:06;;;;;;;31.50;24.10;;;;;;;;;;5088371;28;20079;-56
2023/01/23 04:06:32;;;;;;;27.73;24.13;;;;;;;;;;5088383;28;20017;-56
2023/01/23 04:08:58;;;;;;;27.58;24.58;;;;;;;;;;5087287;28;20115;-56
2023/01/23 04:11:28;;;;;;;30.98;25.60;;;;;;;;;;5088558;28;20044;-54
2023/01/23 04:13:54;;;;;;;28.85;25.65;;;;;;;;;;5088381;28;20028;-57
2023/01/23 04:16:23;;;;;;;30.20;23.67;;;;;;;;;;5088639;28;20503;-56
2023/01/23 04:18:50;;;;;;;32.75;25.98;;;;;;;;;;5088471;28;20021;-53
2023/01/23 04:21:16;;;;;;;28.02;24.65;;;;;;;;;;5088548;28;20036;-56
2023/01/23 04:23:42;;;;;;;29.75;23.85;;;;;;;;;;5087048;28;20035;-56
2023/01/23 04:26:08;;;;;;;27.83;24.73;;;;;;;;;;5088763;28;20033;-57
2023/01/23 04:28:34;;;;;;;28.67;24.40;;;;;;;;;;5088427;28;20083;-56
2023/01/23 04:31:00;;;;;;;28.35;23.83;;;;;;;;;;5088707;28;20530;-52
2023/01/23 04:33:26;;;;;;;27.23;23.80;;;;;;;;;;5086690;28;20027;-56
2023/01/23 04:36:02;;;;;;;29.30;24.23;;;;;;;;;;5088551;28;20075;-55
2023/01/23 04:38:29;;;;;;;27.90;22.65;;;;;;;;;;5088499;28;20059;-53
2023/01/23 04:40:55;;;;;;;28.60;22.98;;;;;;;;;;5087506;28;20024;-56
2023/01/23 04:43:21;;;;;;;27.73;23.00;;;;;;;;;;5098045;28;20027;-52
2023/01/23 04:45:49;;;;;;;26.75;22.77;;;;;;;;;;5107586;28;20020;-56
2023/01/23 04:48:15;;;;;;;28.15;22.65;;;;;;;;;;5107502;28;20110;-54
2023/01/23 04:50:41;;;;;;;25.85;22.90;;;;;;;;;;5107303;28;20060;-55
2023/01/23 04:53:07;;;;;;;25.42;22.70;;;;;;;;;;5108553;28;20028;-56
2023/01/23 04:55:33;;;;;;;26.90;22.15;;;;;;;;;;5097561;28;20085;-53
2023/01/23 04:58:00;;;;;;;28.35;23.08;;;;;;;;;;5093827;28;20071;-55
2023/01/23 05:00:27;;;;;;;27.55;22.20;;;;;;;;;;5094934;28;20028;-54
2023/01/23 05:02:54;;;;;;;28.45;23.17;;;;;;;;;;5093443;28;20031;-57
2023/01/23 05:05:20;;;;;;;28.27;23.38;;;;;;;;;;5094845;28;20051;-50
2023/01/23 05:07:49;;;;;;;28.08;22.73;;;;;;;;;;5094608;28;20094;-51
2023/01/23 05:10:16;;;;;;;28.15;23.42;;;;;;;;;;5094618;28;20085;-53
2023/01/23 05:12:42;;;;;;;27.55;24.52;;;;;;;;;;5094317;28;20032;-55
2023/01/23 05:15:09;;;;;;;26.63;22.33;;;;;;;;;;5094373;28;20023;-54
2023/01/23 05:17:35;;;;;;;30.67;23.60;;;;;;;;;;5094330;28;20092;-54
2023/01/23 05:20:01;;;;;;;27.63;22.63;;;;;;;;;;5094315;28;20396;-54
2023/01/23 05:22:27;;;;;;;30.15;24.90;;;;;;;;;;5094314;28;20033;-52
2023/01/23 05:24:53;;;;;;;26.23;22.02;;;;;;;;;;5093917;28;20073;-55
2023/01/23 05:27:19;;;;;;;26.90;22.75;;;;;;;;;;5094128;28;20020;-56
2023/01/23 05:29:45;;;;;;;30.00;23.77;;;;;;;;;;5094158;28;20040;-51
2023/01/23 05:32:11;;;;;;;27.50;22.67;;;;;;;;;;5093251;28;20023;-54
2023/01/23 05:34:37;;;;;;;29.95;23.48;;;;;;;;;;5094046;28;20028;-53
2023/01/23 05:37:03;;;;;;;26.42;22.45;;;;;;;;;;5092838;28;20487;-51
2023/01/23 05:39:31;;;;;;;28.00;22.77;;;;;;;;;;5092404;28;20020;-58
2023/01/23 05:41:57;;;;;;;27.70;24.45;;;;;;;;;;5094038;28;20027;-53
2023/01/23 05:44:23;;;;;;;28.83;23.58;;;;;;;;;;5093955;28;20028;-53
2023/01/23 05:46:49;;;;;;;30.15;23.55;;;;;;;;;;5093888;28;20024;-56
2023/01/23 05:49:15;;;;;;;28.98;24.38;;;;;;;;;;5092231;28;20072;-56
2023/01/23 05:51:41;;;;;;;29.67;24.80;;;;;;;;;;5093611;28;20073;-53
2023/01/23 05:54:09;;;;;;;29.25;24.75;;;;;;;;;;5093385;28;20391;-55
2023/01/23 05:56:35;;;;;;;31.48;26.08;;;;;;;;;;5093250;28;20061;-59
2023/01/23 05:59:02;;;;;;;30.42;24.10;;;;;;;;;;5093173;28;20065;-55
2023/01/23 06:01:28;;;;;;;29.33;23.45;;;;;;;;;;5092039;28;20028;-56
2023/01/23 06:03:54;;;;;;;29.25;24.42;;;;;;;;;;5093233;28;20043;-56
2023/01/23 06:06:20;;;;;;;30.27;25.67;;;;;;;;;;5092426;28;20406;-53
2023/01/23 06:08:46;;;;;;;31.10;25.63;;;;;;;;;;5091882;28;20045;-52
2023/01/23 06:11:12;;;;;;;31.13;25.02;;;;;;;;;;5093195;28;20020;-54
2023/01/23 06:13:38;;;;;;;29.83;24.73;;;;;;;;;;5092850;28;20035;-51
2023/01/23 06:16:05;;;;;;;31.38;25.75;;;;;;;;;;5091596;28;20035;-57
2023/01/23 06:18:31;;;;;;;30.48;24.52;;;;;;;;;;5093238;28;20020;-53
2023/01/23 06:21:00;;;;;;;28.00;23.38;;;;;;;;;;5091495;28;20422;-55
2023/01/23 06:23:26;;;;;;;29.55;25.15;;;;;;;;;;5091232;28;20526;-55
2023/01/23 06:25:52;;;;;;;32.58;24.92;;;;;;;;;;5092886;28;20061;-55
2023/01/23 06:28:18;;;;;;;28.80;23.95;;;;;;;;;;5090753;28;20392;-56
2023/01/23 06:30:44;;;;;;;28.90;24.77;;;;;;;;;;5092333;28;20012;-56
2023/01/23 06:33:10;;;;;;;27.88;24.08;;;;;;;;;;5092112;28;20053;-59
2023/01/23 06:35:36;;;;;;;30.65;26.10;;;;;;;;;;5091064;28;20437;-56
2023/01/23 06:38:02;;;;;;;30.75;26.60;;;;;;;;;;5092524;28;20459;-54
2023/01/23 06:40:28;;;;;;;27.85;24.60;;;;;;;;;;5091646;28;20043;-51
2023/01/23 06:42:55;;;;;;;29.13;25.92;;;;;;;;;;5092095;28;20074;-56
2023/01/23 06:45:21;;;;;;;30.17;25.92;;;;;;;;;;5090747;28;20044;-54
2023/01/23 06:47:47;;;;;;;34.08;24.67;;;;;;;;;;5090962;28;20400;-57
2023/01/23 06:50:13;;;;;;;29.00;25.38;;;;;;;;;;5092238;28;20028;-55
2023/01/23 06:52:39;;;;;;;30.10;26.80;;;;;;;;;;5091575;28;20031;-56
2023/01/23 06:55:05;;;;;;;29.85;24.40;;;;;;;;;;5090932;28;20450;-57
2023/01/23 06:57:32;;;;;;;29.38;25.45;;;;;;;;;;5091129;28;20024;-57
2023/01/23 06:59:58;;;;;;;28.10;24.85;;;;;;;;;;5091139;28;20072;-57
2023/01/23 07:02:24;;;;;;;29.25;25.13;;;;;;;;;;5091073;28;20472;-52
2023/01/23 07:04:50;;;;;;;29.60;24.48;;;;;;;;;;5089799;28;20054;-58
2023/01/23 07:07:16;;;;;;;29.25;24.60;;;;;;;;;;5091286;28;20024;-54
2023/01/23 07:09:42;;;;;;;27.48;24.20;;;;;;;;;;5090258;28;20087;-54
2023/01/23 07:12:08;;;;;;;27.75;24.65;;;;;;;;;;5090498;28;20052;-54
2023/01/23 07:14:34;;;;;;;27.33;24.15;;;;;;;;;;5090257;28;20050;-56
2023/01/23 07:17:00;;;;;;;31.50;25.15;;;;;;;;;;5090763;28;20024;-56
2023/01/23 07:19:26;;;;;;;28.38;24.95;;;;;;;;;;5090692;28;20085;-55
2023/01/23 07:21:52;;;;;;;26.52;23.17;;;;;;;;;;5091435;28;20027;-57
2023/01/23 07:24:18;;;;;;;28.65;22.73;;;;;;;;;;5089413;28;20031;-55
2023/01/23 07:26:44;;;;;;;26.75;22.90;;;;;;;;;;5089801;28;20120;-55
2023/01/23 07:29:10;;;;;;;27.98;23.85;;;;;;;;;;5089987;28;20622;-54
2023/01/23 07:31:36;;;;;;;27.92;23.38;;;;;;;;;;5090978;28;20063;-56
2023/01/23 07:34:02;;;;;;;33.35;24.20;;;;;;;;;;5085974;28;20146;-52
2023/01/23 07:36:29;;;;;;;26.65;22.85;;;;;;;;;;5090889;28;20051;-55
2023/01/23 07:38:55;;;;;;;29.25;23.17;;;;;;;;;;5091066;28;20028;-57
2023/01/23 07:41:21;;;;;;;27.63;22.65;;;;;;;;;;5080504;28;20027;-57
2023/01/23 07:43:47;;;;;;;31.73;24.75;;;;;;;;;;5069920;28;20028;-55
2023/01/23 07:46:13;;;;;;;27.42;22.42;;;;;;;;;;5070574;28;20044;-58
2023/01/23 07:48:39;;;;;;;28.70;22.95;;;;;;;;;;5069902;28;20229;-61
2023/01/23 07:51:06;;;;;;;27.35;23.10;;;;;;;;;;5089888;28;20024;-57
2023/01/23 07:53:32;;;;;;;28.08;22.13;;;;;;;;;;5089358;28;20059;-54
2023/01/23 07:55:58;;;;;;;28.27;23.02;;;;;;;;;;5091164;28;20032;-56
2023/01/23 07:58:24;;;;;;;29.60;23.50;;;;;;;;;;5091122;28;20027;-56
2023/01/23 08:00:50;;;;;;;33.72;23.70;;;;;;;;;;5090010;28;20103;-57
2023/01/23 08:03:16;;;;;;;27.58;21.92;;;;;;;;;;5091329;28;20024;-53
2023/01/23 08:05:47;;;;;;;31.42;23.02;;;;;;;;;;5091006;28;20024;-56
2023/01/23 08:08:13;;;;;;;30.20;24.35;;;;;;;;;;5070825;28;20055;-56
2023/01/23 08:10:40;;;;;;;27.50;21.90;;;;;;;;;;5071053;28;20028;-50
2023/01/23 08:13:06;;;;;;;31.52;22.75;;;;;;;;;;5070365;28;20096;-51
2023/01/23 08:15:32;;;;;;;30.17;22.35;;;;;;;;;;5069518;28;20059;-57
2023/01/23 08:17:58;;;;;;;32.75;23.45;;;;;;;;;;5070825;28;20099;-53
2023/01/23 08:20:24;;;;;;;29.83;22.65;;;;;;;;;;5070629;28;20021;-56
2023/01/23 08:22:50;;;;;;;29.90;23.55;;;;;;;;;;5070682;28;20366;-58
2023/01/23 08:25:16;;;;;;;27.85;22.45;;;;;;;;;;5070696;28;20524;-54
2023/01/23 08:27:42;;;;;;;30.20;23.55;;;;;;;;;;5070751;28;20028;-58
2023/01/23 08:30:08;;;;;;;31.70;24.40;;;;;;;;;;5071974;28;20028;-57
2023/01/23 08:32:35;;;;;;;28.60;22.50;;;;;;;;;;5074528;28;20020;-54
2023/01/23 08:35:02;;;;;;;28.20;23.23;;;;;;;;;;5094770;28;20028;-58
2023/01/23 08:37:28;;;;;;;29.13;22.42;;;;;;;;;;5094542;28;20115;-59
2023/01/23 08:39:54;;;;;;;30.23;22.90;;;;;;;;;;5093710;28;20440;-60
2023/01/23 08:42:21;;;;;;;34.42;25.52;;;;;;;;;;5094527;28;20460;-59
2023/01/23 08:44:47;;;;;;;33.40;23.25;;;;;;;;;;5094596;28;20020;-62
2023/01/23 08:47:13;;;;;;;29.83;22.77;;;;;;;;;;5093198;28;20123;-59
2023/01/23 08:49:39;;;;;;;30.05;23.45;;;;;;;;;;5094190;28;20039;-60
2023/01/23 08:52:05;;;;;;;32.05;23.52;;;;;;;;;;5092025;28;20043;-59
2023/01/23 08:54:32;;;;;;;30.30;22.95;;;;;;;;;;5094746;28;20504;-59
2023/01/23 08:56:58;;;;;;;32.28;22.92;;;;;;;;;;5095149;28;20048;-62
2023/01/23 08:59:24;;;;;;;30.95;23.48;;;;;;;;;;5095176;28;20024;-64
2023/01/23 09:01:50;;;;;;;31.08;22.40;;;;;;;;;;5095291;28;20039;-64
2023/01/23 09:04:16;;;;;;;30.95;22.63;;;;;;;;;;5093816;28;20403;-60
2023/01/23 09:06:43;;;;;;;28.67;21.95;;;;;;;;;;5094335;28;20050;-61
2023/01/23 09:09:09;;;;;;;32.20;22.60;;;;;;;;;;5074280;28;20025;-61
2023/01/23 09:11:35;;;;;;;32.65;23.00;;;;;;;;;;5074069;28;20025;-58
2023/01/23 09:14:01;;;;;;;33.50;24.02;;;;;;;;;;5073378;28;20082;-58
2023/01/23 09:16:27;;;;;;;30.40;22.50;;;;;;;;;;5073837;28;20024;-62
2023/01/23 09:18:54;;;;;;;30.88;21.60;;;;;;;;;;5073043;28;20063;-62
2023/01/23 09:21:20;;;;;;;30.15;21.15;;;;;;;;;;5072004;28;20094;-62
2023/01/23 09:23:46;;;;;;;27.20;20.13;;;;;;;;;;5071500;28;20465;-61
2023/01/23 09:26:13;;;;;;;28.88;20.95;;;;;;;;;;5073511;28;20025;-62
2023/01/23 09:28:41;;;;;;;33.00;20.65;;;;;;;;;;5072729;28;20017;-62
2023/01/23 09:31:09;;;;;;;29.25;20.08;;;;;;;;;;5073850;28;20031;-62
2023/01/23 09:33:36;;;;;;;29.60;19.98;;;;;;;;;;5080374;28;20090;-62
2023/01/23 09:36:02;;;;;;;27.80;19.55;;;;;;;;;;5092441;28;20028;-61
2023/01/23 09:38:29;;;;;;;28.40;19.02;;;;;;;;;;5094291;28;20024;-62
2023/01/23 09:40:57;;;;;;;26.08;17.90;;;;;;;;;;5093990;28;20048;-62
2023/01/23 09:43:25;;;;;;;25.42;17.45;;;;;;;;;;5093603;28;20032;-62
2023/01/23 09:45:57;;;;;;;27.90;19.13;;;;;;;;;;5092500;28;20365;-59
2023/01/23 09:48:29;;;;;;;29.55;17.75;;;;;;;;;;5093783;28;20107;-62
2023/01/23 09:51:04;;;;;;;30.05;18.38;;;;;;;;;;5092909;28;20020;-61
2023/01/23 09:53:38;;;;;;;26.83;17.42;;;;;;;;;;5093845;28;20184;-59
2023/01/23 09:56:10;;;;;;;28.60;17.30;;;;;;;;;;5093445;28;20024;-62
2023/01/23 09:58:39;;;;;;;28.20;17.48;;;;;;;;;;5093552;28;20134;-62
2023/01/23 10:01:05;;;;;;;26.88;17.10;;;;;;;;;;5092841;28;20027;-62
2023/01/23 10:03:32;;;;;;;28.05;17.90;;;;;;;;;;5090969;28;20036;-63
2023/01/23 10:06:04;;;;;;;26.92;17.67;;;;;;;;;;5092357;28;20048;-63
2023/01/23 10:08:36;;;;;;;25.77;16.60;;;;;;;;;;5093443;28;20024;-61
2023/01/23 10:11:08;;;;;;;27.88;16.50;;;;;;;;;;5092998;28;20074;-62
2023/01/23 10:13:40;;;;;;;26.98;17.00;;;;;;;;;;5092703;28;20027;-63
2023/01/23 10:16:27;;;;;;;26.80;16.63;;;;;;;;;;5092457;28;20016;-62
2023/01/23 10:19:02;;;;;;;26.65;17.25;;;;;;;;;;5091950;28;20390;-60
2023/01/23 10:21:46;;;;;;;28.08;16.20;;;;;;;;;;5091862;28;20028;-60
2023/01/23 10:24:12;;;;;;;27.77;17.42;;;;;;;;;;5099176;28;20056;-60
2023/01/23 10:26:40;;;;;;;27.15;17.15;;;;;;;;;;5100711;28;20024;-59
2023/01/23 10:29:12;;;;;;;25.30;16.92;;;;;;;;;;5099886;28;20025;-63
2023/01/23 10:32:00;;;;;;;26.02;15.85;;;;;;;;;;5092794;28;20077;-61
2023/01/23 10:34:33;;;;;;;27.80;15.43;;;;;;;;;;5090634;28;20484;-59
2023/01/23 10:37:06;;;;;;;27.55;16.90;;;;;;;;;;5092177;28;20142;-60
2023/01/23 10:39:41;;;;;;;25.25;16.23;;;;;;;;;;5090707;28;20419;-62
2023/01/23 10:42:12;;;;;;;25.42;16.30;;;;;;;;;;5091958;28;20063;-61
2023/01/23 10:44:38;;;;;;;26.60;16.23;;;;;;;;;;5092190;28;20173;-62
2023/01/23 10:47:11;;;;;;;27.48;17.30;;;;;;;;;;5091987;28;20024;-62
2023/01/23 10:49:42;;;;;;;26.48;15.70;;;;;;;;;;5090755;28;20020;-59
2023/01/23 10:52:27;;;;;;;28.33;16.52;;;;;;;;;;5090051;28;20480;-61
2023/01/23 10:54:54;;;;;;;27.60;16.45;;;;;;;;;;5090854;28;20414;-63
2023/01/23 10:57:25;;;;;;;26.88;15.52;;;;;;;;;;5091723;28;20027;-61
2023/01/23 10:59:51;;;;;;;28.95;17.65;;;;;;;;;;5091555;28;20028;-63
2023/01/23 11:02:21;;;;;;;27.15;15.25;;;;;;;;;;5092241;28;20044;-61
2023/01/23 11:04:50;;;;;;;27.48;15.85;;;;;;;;;;5091624;28;20484;-60
2023/01/23 11:07:21;;;;;;;26.95;17.20;;;;;;;;;;5092125;28;20028;-61
2023/01/23 11:09:47;;;;;;;29.58;16.45;;;;;;;;;;5076777;28;20092;-60
2023/01/23 11:12:32;;;;;;;29.90;17.35;;;;;;;;;;5071626;28;20044;-61
2023/01/23 11:15:13;;;;;;;27.35;15.95;;;;;;;;;;5071098;28;20032;-62
2023/01/23 11:17:41;;;;;;;29.10;16.88;;;;;;;;;;5071625;28;20082;-61
2023/01/23 11:20:26;;;;;;;31.40;18.30;;;;;;;;;;5071368;28;20024;-62
2023/01/23 11:23:03;;;;;;;29.15;17.50;;;;;;;;;;5071172;28;20028;-63
2023/01/23 11:25:31;;;;;;;29.10;18.05;;;;;;;;;;5071230;28;20083;-61
2023/01/23 11:27:58;;;;;;;28.63;18.17;;;;;;;;;;5070972;28;20372;-60
2023/01/23 11:30:24;;;;;;;27.45;16.33;;;;;;;;;;5088304;28;20142;-63
2023/01/23 11:33:20;;;;;;;30.58;17.95;;;;;;;;;;5091132;28;20369;-62
2023/01/23 11:36:18;;;;;;;27.48;16.42;;;;;;;;;;5054097;28;20048;-62
2023/01/23 11:38:46;;;;;;;27.20;16.95;;;;;;;;;;5068617;28;20028;-61
2023/01/23 11:41:13;;;;;;;29.00;16.80;;;;;;;;;;5091624;28;20649;-63
2023/01/23 11:43:40;;;;;;;28.67;16.50;;;;;;;;;;5091203;28;20113;-62
2023/01/23 11:46:21;;;;;;;26.38;16.92;;;;;;;;;;5091590;28;20506;-62
2023/01/23 11:49:07;;;;;;;29.13;16.70;;;;;;;;;;5091381;28;20028;-63
2023/01/23 11:51:33;;;;;;;26.92;16.80;;;;;;;;;;5069265;28;20388;-62
2023/01/23 11:53:59;;;;;;;28.63;16.35;;;;;;;;;;5032655;28;20048;-61
2023/01/23 11:56:46;;;;;;;27.08;16.15;;;;;;;;;;5031428;28;20032;-63
2023/01/23 11:59:20;;;;;;;26.65;16.25;;;;;;;;;;5031503;28;20034;-63
2023/01/23 12:02:04;;;;;;;29.25;16.95;;;;;;;;;;5031186;28;20049;-63
2023/01/23 12:04:45;;;;;;;27.67;16.33;;;;;;;;;;5031633;28;20022;-61
2023/01/23 12:07:21;;;;;;;27.48;16.48;;;;;;;;;;5034173;28;20481;-59
2023/01/23 12:10:02;;;;;;;26.50;16.00;;;;;;;;;;5014420;28;20026;-61
2023/01/23 12:12:47;;;;;;;25.55;16.33;;;;;;;;;;5027298;28;20052;-61
2023/01/23 12:15:23;;;;;;;28.50;17.65;;;;;;;;;;5054581;28;20096;-63
2023/01/23 12:17:49;;;;;;;28.85;16.98;;;;;;;;;;5054846;28;20040;-64
2023/01/23 12:20:28;;;;;;;26.65;16.60;;;;;;;;;;5054404;28;20021;-58
2023/01/23 12:23:01;;;;;;;27.15;15.85;;;;;;;;;;5053319;28;20393;-63
2023/01/23 12:25:35;;;;;;;29.80;17.13;;;;;;;;;;5053357;28;20025;-63
2023/01/23 12:28:17;;;;;;;31.23;17.00;;;;;;;;;;5054475;28;20018;-62
2023/01/23 12:30:49;;;;;;;32.55;18.80;;;;;;;;;;5054357;28;20036;-62
2023/01/23 12:33:18;;;;;;;32.90;20.10;;;;;;;;;;5050549;28;20030;-60
2023/01/23 12:35:55;;;;;;;31.85;16.95;;;;;;;;;;5031071;28;20106;-62
2023/01/23 12:38:26;;;;;;;29.33;17.92;;;;;;;;;;5021977;28;20037;-62
2023/01/23 12:41:10;;;;;;;28.77;16.63;;;;;;;;;;5027777;28;20029;-61
2023/01/23 12:43:39;;;;;;;31.55;16.92;;;;;;;;;;5033778;28;20116;-62
2023/01/23 12:46:09;;;;;;;31.98;18.23;;;;;;;;;;5049595;28;20482;-62
2023/01/23 12:48:42;;;;;;;30.45;18.92;;;;;;;;;;5033976;28;20073;-62
2023/01/23 12:51:12;;;;;;;32.53;19.15;;;;;;;;;;5030472;23;20080;-62
2023/01/23 12:53:40;;;;;;;32.72;18.45;;;;;;;;;;5013393;28;20114;-63
2023/01/23 12:56:12;;;;;;;30.70;19.13;;;;;;;;;;4996534;28;20025;-62
2023/01/23 12:58:45;;;;;;;30.13;17.83;;;;;;;;;;5014112;28;20371;-64
2023/01/23 13:01:27;;;;;;;28.95;16.52;;;;;;;;;;5010031;28;20022;-61
2023/01/23 13:04:01;;;;;;;31.15;19.20;;;;;;;;;;5013426;28;20117;-63
2023/01/23 13:06:30;;;;;;;30.00;18.48;;;;;;;;;;5029177;28;20029;-63
2023/01/23 13:09:04;;;;;;;32.65;17.52;;;;;;;;;;5029052;28;20033;-63
2023/01/23 13:11:49;;;;;;;33.05;19.50;;;;;;;;;;5013595;28;20033;-63
2023/01/23 13:14:18;;;;;;;28.17;17.13;;;;;;;;;;5028822;28;20072;-63
2023/01/23 13:16:48;;;;;;;29.05;17.25;;;;;;;;;;5027937;28;20029;-63
2023/01/23 13:22:25;;;;;;;32.58;18.92;;;;;;;;;;5013825;28;20466;-64
2023/01/23 13:25:17;;;;;;;31.77;16.90;;;;;;;;;;5013411;28;20030;-65
2023/01/23 13:27:49;;;;;;;30.08;17.98;;;;;;;;;;5006702;28;20030;-63
2023/01/23 13:30:24;;;;;;;29.08;17.58;;;;;;;;;;5013126;28;20021;-64
2023/01/23 13:32:56;;;;;;;25.40;16.27;;;;;;;;;;5013254;28;20054;-64
2023/01/23 13:35:43;;;;;;;30.40;18.42;;;;;;;;;;5013226;28;20032;-63
2023/01/23 13:38:21;;;;;;;29.05;17.65;;;;;;;;;;5028584;28;20109;-64
2023/01/23 13:41:17;;;;;;;31.63;17.85;;;;;;;;;;5013254;28;20150;-62
2023/01/23 13:43:49;;;;;;;32.05;19.00;;;;;;;;;;5012944;28;20033;-63
2023/01/23 13:46:34;;;;;;;29.98;17.75;;;;;;;;;;5012984;28;20065;-64
2023/01/23 13:51:58;;;;;;;28.95;17.92;;;;;;;;;;5013181;28;20101;-63
2023/01/23 13:57:14;;;;;;;32.17;18.58;;;;;;;;;;5013066;28;20104;-58
2023/01/23 13:59:43;;;;;;;27.15;16.83;;;;;;;;;;5012538;28;20084;-64
2023/01/23 14:05:23;;;;;;;29.88;16.98;;;;;;;;;;5012470;28;20559;-62
2023/01/23 14:07:52;;;;;;;29.30;16.67;;;;;;;;;;5024773;28;20088;-64
2023/01/23 14:10:18;;;;;;;;;;;;;;;;;;5013077;28;20018;-63
2023/01/23 14:12:45;;;;;;;27.95;17.40;;;;;;;;;;5012507;28;19975;-64
2023/01/23 14:18:03;;;;;;;29.38;17.70;;;;;;;;;;5012429;28;20543;-64
2023/01/23 14:20:32;;;;;;;28.48;16.42;;;;;;;;;;5027377;28;20026;-64
2023/01/23 14:22:58;;;;;;;31.13;18.02;;;;;;;;;;5012207;28;20133;-63
2023/01/23 14:25:24;;;;;;;30.45;18.70;;;;;;;;;;5027379;28;20094;-64
2023/01/23 14:28:01;;;;;;;30.85;18.40;;;;;;;;;;5011548;28;20080;-63
2023/01/23 14:30:29;;;;;;;31.48;17.75;;;;;;;;;;5028478;28;20022;-60
2023/01/23 14:32:55;;;;;;;29.20;18.08;;;;;;;;;;5012526;28;20165;-61
2023/01/23 14:35:25;;;;;;;31.80;20.27;;;;;;;;;;5027165;28;20026;-62
2023/01/23 14:37:53;;;;;;;26.90;16.30;;;;;;;;;;5012270;28;20025;-63
2023/01/23 14:40:20;;;;;;;30.08;17.13;;;;;;;;;;5011520;28;20018;-64
2023/01/23 14:42:51;;;;;;;30.23;18.83;;;;;;;;;;5011944;28;20026;-64
2023/01/23 14:45:17;;;;;;;29.70;18.10;;;;;;;;;;5027148;28;20478;-64
2023/01/23 14:47:45;;;;;;;36.75;18.40;;;;;;;;;;5012121;28;20398;-64
2023/01/23 14:50:16;;;;;;;29.08;17.80;;;;;;;;;;5011324;28;20033;-65